Time;durP1;ratioP1;P1;durP2;ratioP2;P2;SDS_P1;SDS_P2;PMS_P1;PMS_P2;Temp;Humidity;BMP_temperature;BMP_pressure;BME280_temperature;BME280_humidity;BME280_pressure;Samples;Min_cycle;Max_cycle;Signal;HPM_P1;HPM_P2
2022/04/02 00:01:06;;;;;;;;;;;23.30;36.90;;;;;;5085610;28;19928;-63
2022/04/02 00:03:33;;;;;;;;;;;23.30;36.90;;;;;;5085477;28;19935;-63
2022/04/02 00:06:00;;;;;;;;;;;23.30;36.90;;;;;;5085153;28;19928;-63
2022/04/02 00:08:27;;;;;;;;;;;23.30;36.90;;;;;;5086078;28;20208;-63
2022/04/02 00:10:54;;;;;;;;;;;23.30;36.90;;;;;;5085321;28;19924;-63
2022/04/02 00:13:22;;;;;;;;;;;23.30;36.90;;;;;;5085168;28;20338;-66
2022/04/02 00:15:48;;;;;;;;;;;23.30;36.80;;;;;;5085616;28;20380;-63
2022/04/02 00:18:15;;;;;;;;;;;23.30;36.80;;;;;;5085572;28;19924;-63
2022/04/02 00:20:43;;;;;;;;;;;23.30;36.80;;;;;;5085092;28;19935;-62
2022/04/02 00:25:56;;;;;;;;;;;23.30;36.80;;;;;;5084814;28;19934;-62
2022/04/02 00:28:23;;;;;;;;;;;23.30;36.80;;;;;;5085040;28;19928;-63
2022/04/02 00:30:51;;;;;;;;;;;23.30;36.80;;;;;;5085489;28;20194;-62
2022/04/02 00:33:18;;;;;;;;;;;23.30;36.80;;;;;;5084875;28;19925;-63
2022/04/02 00:35:45;;;;;;;;;;;23.30;36.70;;;;;;5084878;28;19928;-63
2022/04/02 00:38:12;;;;;;;;;;;23.30;36.70;;;;;;5085654;28;19982;-63
2022/04/02 00:40:43;;;;;;;;;;;23.20;37.20;;;;;;5085701;28;19978;-63
2022/04/02 00:43:28;;;;;;;;;;;23.20;36.70;;;;;;5084721;28;19928;-63
2022/04/02 00:45:57;;;;;;;;;;;23.20;36.60;;;;;;5085539;28;19949;-63
2022/04/02 00:48:24;;;;;;;;;;;23.20;36.60;;;;;;5067013;28;20376;-63
2022/04/02 00:50:52;;;;;;;;;;;23.20;36.60;;;;;;5085293;28;20365;-63
2022/04/02 00:53:19;;;;;;;;;;;23.20;36.60;;;;;;5082022;28;19924;-63
2022/04/02 00:55:47;;;;;;;;;;;23.20;36.60;;;;;;5089182;28;19928;-63
2022/04/02 00:58:14;;;;;;;;;;;23.20;36.60;;;;;;5088799;28;20404;-63
2022/04/02 01:00:42;;;;;;;;;;;23.20;36.50;;;;;;5088874;28;20441;-63
2022/04/02 01:03:11;;;;;;;;;;;23.20;36.50;;;;;;5088897;28;19970;-63
2022/04/02 01:05:39;;;;;;;;;;;23.20;36.50;;;;;;5089306;28;19924;-63
2022/04/02 01:08:06;;;;;;;;;;;23.20;36.50;;;;;;5088825;28;19928;-63
2022/04/02 01:10:35;;;;;;;;;;;23.20;36.50;;;;;;5088304;28;19947;-63
2022/04/02 01:13:03;;;;;;;;;;;23.20;36.50;;;;;;5088690;28;19928;-63
2022/04/02 01:15:30;;;;;;;;;;;23.20;36.50;;;;;;5089102;28;20427;-63
2022/04/02 01:17:57;;;;;;;;;;;23.20;36.50;;;;;;5070898;28;19928;-63
2022/04/02 01:20:27;;;;;;;;;;;23.20;36.50;;;;;;5088523;28;19986;-62
2022/04/02 01:22:54;;;;;;;;;;;23.20;36.50;;;;;;5088488;28;19924;-62
2022/04/02 01:25:21;;;;;;;;;;;23.20;36.60;;;;;;5083453;28;19925;-63
2022/04/02 01:27:48;;;;;;;;;;;23.20;36.60;;;;;;5088832;28;19977;-63
2022/04/02 01:30:15;;;;;;;;;;;23.20;36.60;;;;;;5070478;28;20417;-63
2022/04/02 01:32:42;;;;;;;;;;;23.10;36.60;;;;;;5088045;28;19977;-63
2022/04/02 01:35:10;;;;;;;;;;;23.10;36.60;;;;;;5088479;28;19924;-63
2022/04/02 01:37:38;;;;;;;;;;;23.10;36.60;;;;;;5088624;28;20170;-63
2022/04/02 01:40:05;;;;;;;;;;;23.20;36.70;;;;;;5088424;28;20427;-63
2022/04/02 01:42:32;;;;;;;;;;;23.10;36.60;;;;;;5088074;28;19931;-63
2022/04/02 01:45:00;;;;;;;;;;;23.10;36.60;;;;;;5087629;28;20392;-63
2022/04/02 01:47:27;;;;;;;;;;;23.20;36.70;;;;;;5088715;28;19928;-63
2022/04/02 01:49:54;;;;;;;;;;;23.20;36.70;;;;;;5070005;28;19982;-64
2022/04/02 01:52:21;;;;;;;;;;;23.10;36.70;;;;;;5088027;28;19924;-63
2022/04/02 01:54:49;;;;;;;;;;;23.10;36.70;;;;;;5088070;28;19928;-63
2022/04/02 01:57:16;;;;;;;;;;;23.10;36.60;;;;;;5083156;28;19967;-63
2022/04/02 01:59:49;;;;;;;;;;;23.10;36.60;;;;;;5087434;28;20362;-63
2022/04/02 02:02:17;;;;;;;;;;;23.10;36.60;;;;;;5088064;28;19932;-63
2022/04/02 02:04:44;;;;;;;;;;;23.10;36.60;;;;;;5087302;28;20010;-64
2022/04/02 02:07:12;;;;;;;;;;;23.10;36.70;;;;;;5088138;28;20369;-63
2022/04/02 02:09:39;;;;;;;;;;;23.10;36.70;;;;;;5087419;28;19924;-63
2022/04/02 02:12:06;;;;;;;;;;;23.10;36.60;;;;;;5087809;28;19927;-63
2022/04/02 02:14:33;;;;;;;;;;;23.10;36.60;;;;;;5086328;28;19924;-64
2022/04/02 02:17:00;;;;;;;;;;;23.10;36.60;;;;;;5087502;28;19924;-63
2022/04/02 02:19:27;;;;;;;;;;;23.10;36.60;;;;;;5087080;28;19958;-63
2022/04/02 02:21:54;;;;;;;;;;;23.10;36.60;;;;;;5087228;28;19928;-63
2022/04/02 02:24:21;;;;;;;;;;;23.10;36.70;;;;;;5087260;28;20269;-63
2022/04/02 02:26:48;;;;;;;;;;;23.10;36.70;;;;;;5087275;28;19928;-63
2022/04/02 02:29:15;;;;;;;;;;;23.10;36.70;;;;;;5082976;28;19971;-63
2022/04/02 02:31:42;;;;;;;;;;;23.10;36.70;;;;;;5087524;28;19952;-63
2022/04/02 02:36:57;;;;;;;;;;;23.10;36.70;;;;;;5086919;28;19932;-63
2022/04/02 02:39:24;;;;;;;;;;;23.10;36.70;;;;;;5086956;28;20437;-63
2022/04/02 02:41:51;;;;;;;;;;;23.10;36.70;;;;;;5087346;28;19986;-63
2022/04/02 02:44:18;;;;;;;;;;;23.10;36.70;;;;;;5086331;28;19924;-63
2022/04/02 02:46:45;;;;;;;;;;;23.00;36.70;;;;;;5086644;28;19932;-63
2022/04/02 02:49:12;;;;;;;;;;;23.10;36.70;;;;;;5087422;28;19965;-63
2022/04/02 02:51:40;;;;;;;;;;;23.10;36.70;;;;;;5069082;28;19969;-63
2022/04/02 02:54:07;;;;;;;;;;;23.00;36.60;;;;;;5087090;28;20350;-64
2022/04/02 02:56:34;;;;;;;;;;;23.00;36.60;;;;;;5086761;28;20421;-63
2022/04/02 02:59:01;;;;;;;;;;;23.00;36.60;;;;;;5086970;28;19974;-64
2022/04/02 03:01:28;;;;;;;;;;;23.00;36.60;;;;;;5081981;28;19924;-63
2022/04/02 03:03:55;;;;;;;;;;;23.00;36.60;;;;;;5086619;28;20343;-63
2022/04/02 03:06:22;;;;;;;;;;;23.10;36.70;;;;;;5086605;28;20125;-63
2022/04/02 03:08:49;;;;;;;;;;;23.00;36.60;;;;;;5086481;28;20184;-64
2022/04/02 03:11:16;;;;;;;;;;;23.00;36.50;;;;;;5086472;28;20034;-63
2022/04/02 03:13:44;;;;;;;;;;;23.10;36.60;;;;;;5086129;28;19970;-63
2022/04/02 03:16:11;;;;;;;;;;;23.00;36.50;;;;;;5085244;28;19970;-64
2022/04/02 03:18:37;;;;;;;;;;;23.00;36.50;;;;;;5086453;28;20384;-64
2022/04/02 03:21:04;;;;;;;;;;;23.00;36.40;;;;;;5086772;28;19927;-63
2022/04/02 03:23:32;;;;;;;;;;;23.00;36.40;;;;;;5085955;28;19924;-63
2022/04/02 03:25:59;;;;;;;;;;;23.00;36.40;;;;;;5085760;28;19925;-63
2022/04/02 03:28:26;;;;;;;;;;;23.00;36.40;;;;;;5086462;28;19936;-63
2022/04/02 03:30:53;;;;;;;;;;;23.00;36.40;;;;;;5086368;28;19924;-63
2022/04/02 03:33:20;;;;;;;;;;;23.00;36.40;;;;;;5081164;28;20010;-64
2022/04/02 03:35:47;;;;;;;;;;;23.00;36.30;;;;;;5086069;28;19971;-64
2022/04/02 03:38:14;;;;;;;;;;;23.00;36.30;;;;;;5085779;28;19967;-64
2022/04/02 03:40:42;;;;;;;;;;;23.00;36.30;;;;;;5085666;28;19924;-63
2022/04/02 03:43:09;;;;;;;;;;;23.00;36.20;;;;;;5086087;28;20031;-63
2022/04/02 03:45:36;;;;;;;;;;;23.00;36.20;;;;;;5086424;28;19934;-64
2022/04/02 03:48:03;;;;;;;;;;;23.00;36.20;;;;;;5085808;28;19924;-63
2022/04/02 03:50:30;;;;;;;;;;;23.00;36.20;;;;;;5085559;28;20449;-64
2022/04/02 03:52:57;;;;;;;;;;;22.90;36.20;;;;;;5086072;28;20154;-63
2022/04/02 03:55:25;;;;;;;;;;;23.00;36.30;;;;;;5085465;28;20316;-63
2022/04/02 03:57:52;;;;;;;;;;;22.90;36.20;;;;;;5086111;28;19964;-63
2022/04/02 04:00:19;;;;;;;;;;;23.00;36.20;;;;;;5085894;28;19974;-64
2022/04/02 04:02:46;;;;;;;;;;;22.90;36.20;;;;;;5084263;28;19955;-64
2022/04/02 04:05:14;;;;;;;;;;;22.90;36.20;;;;;;5082563;28;19924;-64
2022/04/02 04:07:41;;;;;;;;;;;23.00;36.30;;;;;;5085536;28;19927;-64
2022/04/02 04:10:08;;;;;;;;;;;22.90;36.30;;;;;;5085478;28;19938;-63
2022/04/02 04:12:35;;;;;;;;;;;22.90;36.30;;;;;;5085319;28;19924;-64
2022/04/02 04:15:03;;;;;;;;;;;22.90;36.30;;;;;;5085086;28;19927;-64
2022/04/02 04:17:30;;;;;;;;;;;22.90;36.30;;;;;;5085999;28;19924;-63
2022/04/02 04:19:57;;;;;;;;;;;22.90;36.30;;;;;;5085398;28;20220;-63
2022/04/02 04:22:24;;;;;;;;;;;22.90;36.40;;;;;;5085679;28;19997;-64
2022/04/02 04:24:51;;;;;;;;;;;22.90;36.40;;;;;;5085425;28;19985;-64
2022/04/02 04:27:18;;;;;;;;;;;22.90;36.40;;;;;;5086992;28;20366;-63
2022/04/02 04:29:45;;;;;;;;;;;22.90;36.40;;;;;;5089562;28;19963;-63
2022/04/02 04:32:12;;;;;;;;;;;22.90;36.40;;;;;;5088727;28;20372;-64
2022/04/02 04:34:39;;;;;;;;;;;22.90;36.40;;;;;;5088263;28;19927;-63
2022/04/02 04:37:06;;;;;;;;;;;22.90;36.40;;;;;;5068526;28;19956;-63
2022/04/02 04:39:33;;;;;;;;;;;22.90;36.40;;;;;;5089001;28;20182;-64
2022/04/02 04:42:00;;;;;;;;;;;22.90;36.40;;;;;;5088955;28;19982;-63
2022/04/02 04:44:27;;;;;;;;;;;22.90;36.40;;;;;;5089211;28;20350;-64
2022/04/02 04:46:54;;;;;;;;;;;22.90;36.40;;;;;;5089114;28;20372;-63
2022/04/02 04:49:21;;;;;;;;;;;22.90;36.40;;;;;;5089491;28;19924;-64
2022/04/02 04:51:48;;;;;;;;;;;22.90;36.40;;;;;;5089496;28;19924;-63
2022/04/02 04:54:15;;;;;;;;;;;22.90;36.40;;;;;;5089959;28;19924;-64
2022/04/02 04:56:42;;;;;;;;;;;22.90;36.40;;;;;;5089076;28;20429;-63
2022/04/02 04:59:09;;;;;;;;;;;22.90;36.40;;;;;;5089620;28;20346;-63
2022/04/02 05:01:36;;;;;;;;;;;22.90;36.40;;;;;;5089008;28;19924;-64
2022/04/02 05:04:05;;;;;;;;;;;22.90;36.40;;;;;;5088875;28;20343;-63
2022/04/02 05:06:33;;;;;;;;;;;22.90;36.40;;;;;;5084799;28;20342;-64
2022/04/02 05:09:00;;;;;;;;;;;22.90;36.30;;;;;;5088624;28;19951;-63
2022/04/02 05:11:27;;;;;;;;;;;22.80;36.00;;;;;;5088345;28;19924;-64
2022/04/02 05:13:54;;;;;;;;;;;22.80;35.90;;;;;;5088771;28;19936;-63
2022/04/02 05:16:23;;;;;;;;;;;22.80;35.90;;;;;;5088333;28;19966;-63
2022/04/02 05:18:50;;;;;;;;;;;22.80;36.00;;;;;;5054151;28;20320;-63
2022/04/02 05:21:17;;;;;;;;;;;22.80;36.00;;;;;;5089106;28;19928;-64
2022/04/02 05:23:44;;;;;;;;;;;22.80;35.90;;;;;;5088298;28;19970;-63
2022/04/02 05:26:11;;;;;;;;;;;22.80;35.90;;;;;;5090063;28;20015;-62
2022/04/02 05:28:38;;;;;;;;;;;22.80;35.80;;;;;;5091434;28;20276;-63
2022/04/02 05:31:05;;;;;;;;;;;22.80;35.70;;;;;;5090978;28;19924;-63
2022/04/02 05:33:33;;;;;;;;;;;22.80;35.60;;;;;;5090086;28;19924;-64
2022/04/02 05:36:07;;;;;;;;;;;22.90;35.50;;;;;;5073768;28;19931;-63
2022/04/02 05:38:34;;;;;;;;;;;22.90;35.40;;;;;;5085697;28;19977;-64
2022/04/02 05:41:01;;;;;;;;;;;22.90;35.30;;;;;;5090114;28;19925;-63
2022/04/02 05:43:29;;;;;;;;;;;22.90;35.20;;;;;;5090582;28;19959;-64
2022/04/02 05:45:56;;;;;;;;;;;23.00;35.20;;;;;;5089852;28;19924;-63
2022/04/02 05:48:24;;;;;;;;;;;23.00;35.10;;;;;;5089661;28;19928;-63
2022/04/02 05:50:51;;;;;;;;;;;23.00;34.90;;;;;;5090696;28;19924;-63
2022/04/02 05:53:18;;;;;;;;;;;23.10;34.90;;;;;;5090746;28;20337;-63
2022/04/02 05:55:46;;;;;;;;;;;23.10;34.70;;;;;;5090366;28;19962;-63
2022/04/02 05:58:14;;;;;;;;;;;23.20;34.70;;;;;;5072099;28;20372;-63
2022/04/02 06:00:41;;;;;;;;;;;23.20;34.60;;;;;;5089981;28;19924;-64
2022/04/02 06:03:08;;;;;;;;;;;23.20;34.50;;;;;;5090072;28;20296;-63
2022/04/02 06:05:35;;;;;;;;;;;23.30;34.40;;;;;;5090114;28;19924;-65
2022/04/02 06:08:02;;;;;;;;;;;23.30;34.30;;;;;;5090169;28;19924;-64
2022/04/02 06:10:29;;;;;;;;;;;23.40;34.20;;;;;;5085306;28;19935;-63
2022/04/02 06:12:56;;;;;;;;;;;23.40;34.00;;;;;;5081739;28;20365;-63
2022/04/02 06:15:24;;;;;;;;;;;23.50;33.90;;;;;;5070056;28;20335;-63
2022/04/02 06:17:51;;;;;;;;;;;23.50;33.80;;;;;;5069793;28;19978;-63
2022/04/02 06:20:19;;;;;;;;;;;23.50;33.70;;;;;;5069608;28;19928;-63
2022/04/02 06:22:46;;;;;;;;;;;23.60;33.60;;;;;;5069623;28;19932;-63
2022/04/02 06:25:13;;;;;;;;;;;23.60;33.50;;;;;;5069996;28;20332;-64
2022/04/02 06:27:42;;;;;;;;;;;23.60;33.40;;;;;;5069513;28;20361;-64
2022/04/02 06:30:10;;;;;;;;;;;23.70;33.30;;;;;;5069955;28;19929;-64
2022/04/02 06:32:38;;;;;;;;;;;23.70;33.20;;;;;;5068951;28;19970;-64
2022/04/02 06:35:05;;;;;;;;;;;23.80;33.20;;;;;;5069379;28;19931;-64
2022/04/02 06:37:33;;;;;;;;;;;23.80;33.00;;;;;;5069392;28;19971;-64
2022/04/02 06:40:01;;;;;;;;;;;23.80;32.90;;;;;;5069116;28;19925;-64
2022/04/02 06:42:28;;;;;;;;;;;23.80;32.80;;;;;;5065065;28;19932;-64
2022/04/02 06:44:55;;;;;;;;;;;23.90;32.70;;;;;;5068613;28;20434;-64
2022/04/02 06:47:26;;;;;;;;;;;23.90;32.60;;;;;;5069369;28;19980;-64
2022/04/02 06:49:53;;;;;;;;;;;23.90;32.50;;;;;;5068949;28;20351;-64
2022/04/02 06:52:20;;;;;;;;;;;24.00;32.40;;;;;;5068199;28;19935;-64
2022/04/02 06:54:48;;;;;;;;;;;24.00;32.20;;;;;;5069404;28;19929;-63
2022/04/02 06:57:20;;;;;;;;;;;24.10;32.20;;;;;;5068785;28;20041;-63
2022/04/02 06:59:47;;;;;;;;;;;24.10;32.10;;;;;;5069079;28;19924;-64
2022/04/02 07:02:15;;;;;;;;;;;24.10;32.00;;;;;;5068737;28;19928;-64
2022/04/02 07:04:43;;;;;;;;;;;24.20;32.00;;;;;;5068611;28;19970;-63
2022/04/02 07:07:10;;;;;;;;;;;24.20;31.90;;;;;;5069086;28;19928;-63
2022/04/02 07:09:37;;;;;;;;;;;24.20;31.80;;;;;;5051090;28;19977;-63
2022/04/02 07:12:04;;;;;;;;;;;24.30;31.80;;;;;;5068579;28;19924;-63
2022/04/02 07:14:31;;;;;;;;;;;24.30;31.80;;;;;;5063829;28;19928;-63
2022/04/02 07:16:59;;;;;;;;;;;24.30;31.60;;;;;;5068886;28;19997;-63
2022/04/02 07:19:27;;;;;;;;;;;24.30;31.60;;;;;;5068511;28;19982;-63
2022/04/02 07:21:54;;;;;;;;;;;24.30;31.50;;;;;;5050819;28;19978;-63
2022/04/02 07:24:22;;;;;;;;;;;24.30;31.50;;;;;;5068672;28;19925;-62
2022/04/02 07:26:50;;;;;;;;;;;24.30;31.40;;;;;;5068572;28;20005;-63
2022/04/02 07:29:17;;;;;;;;;;;24.40;31.50;;;;;;5068229;28;19986;-63
2022/04/02 07:31:44;;;;;;;;;;;24.40;31.40;;;;;;5068597;28;20355;-62
2022/04/02 07:34:18;;;;;;;;;;;24.40;31.30;;;;;;5067942;28;19936;-63
2022/04/02 07:36:53;;;;;;;;;;;24.40;31.20;;;;;;5067643;28;20736;-63
2022/04/02 07:39:33;;;;;;;;;;;24.50;31.20;;;;;;5068099;28;19951;-63
2022/04/02 07:42:14;;;;;;;;;;;24.50;31.10;;;;;;5068793;28;19977;-63
2022/04/02 07:44:54;;;;;;;;;;;24.60;31.60;;;;;;5063364;28;19925;-63
2022/04/02 07:47:23;;;;;;;;;;;24.60;30.90;;;;;;5068172;28;19970;-63
2022/04/02 07:49:53;;;;;;;;;;;24.60;30.80;;;;;;5075948;28;19928;-63
2022/04/02 07:52:23;;;;;;;;;;;24.70;31.00;;;;;;5087353;28;19982;-63
2022/04/02 07:54:54;;;;;;;;;;;24.70;30.70;;;;;;5090988;28;20433;-63
2022/04/02 07:57:23;;;;;;;;;;;24.80;30.70;;;;;;5087844;28;20410;-63
2022/04/02 07:59:58;;;;;;;;;;;24.80;30.50;;;;;;5088062;28;19975;-63
2022/04/02 08:02:39;;;;;;;;;;;24.80;30.30;;;;;;5087800;28;20388;-62
2022/04/02 08:05:07;;;;;;;;;;;24.90;30.30;;;;;;5088108;28;20358;-63
2022/04/02 08:07:35;;;;;;;;;;;24.90;30.20;;;;;;5087727;28;20372;-62
2022/04/02 08:10:05;;;;;;;;;;;24.90;30.10;;;;;;5087278;28;19969;-62
2022/04/02 08:12:35;;;;;;;;;;;24.90;30.10;;;;;;5087723;28;21276;-62
2022/04/02 08:15:07;;;;;;;;;;;25.00;30.00;;;;;;5087335;28;19924;-62
2022/04/02 08:17:36;;;;;;;;;;;25.00;30.00;;;;;;5083333;28;20367;-62
2022/04/02 08:20:03;;;;;;;;;;;25.00;30.00;;;;;;5087416;28;19924;-62
2022/04/02 08:22:31;;;;;;;;;;;25.00;29.90;;;;;;5087642;28;19932;-62
2022/04/02 08:24:58;;;;;;;;;;;25.10;29.90;;;;;;5088041;28;19924;-63
2022/04/02 08:27:31;;;;;;;;;;;25.10;29.90;;;;;;5087358;28;19932;-62
2022/04/02 08:30:06;;;;;;;;;;;25.10;29.80;;;;;;5088021;28;19970;-64
2022/04/02 08:32:54;;;;;;;;;;;25.20;29.80;;;;;;5087940;28;19989;-63
2022/04/02 08:35:26;;;;;;;;;;;25.20;29.70;;;;;;5087779;28;20379;-63
2022/04/02 08:38:12;;;;;;;;;;;25.20;29.70;;;;;;5087334;28;20571;-64
2022/04/02 08:40:49;;;;;;;;;;;25.30;29.70;;;;;;5087431;28;20433;-64
2022/04/02 08:43:37;;;;;;;;;;;25.30;29.60;;;;;;5088236;28;20557;-64
2022/04/02 08:46:10;;;;;;;;;;;25.40;29.50;;;;;;5087604;28;19982;-64
2022/04/02 08:48:44;;;;;;;;;;;25.40;29.40;;;;;;5083706;28;20299;-63
2022/04/02 08:51:14;;;;;;;;;;;25.50;29.40;;;;;;5087649;28;19982;-64
2022/04/02 08:53:49;;;;;;;;;;;25.50;29.30;;;;;;5087358;28;19951;-64
2022/04/02 08:56:19;;;;;;;;;;;25.50;29.30;;;;;;5087593;28;19924;-63
2022/04/02 08:59:00;;;;;;;;;;;25.60;29.30;;;;;;5087671;28;19928;-64
2022/04/02 09:01:31;;;;;;;;;;;25.60;29.10;;;;;;5087895;28;19928;-63
2022/04/02 09:04:12;;;;;;;;;;;25.70;29.10;;;;;;5087489;28;20483;-64
2022/04/02 09:06:59;;;;;;;;;;;25.70;28.90;;;;;;5087998;28;20441;-64
2022/04/02 09:09:45;;;;;;;;;;;25.70;28.80;;;;;;5087252;28;19928;-64
2022/04/02 09:12:32;;;;;;;;;;;25.80;28.90;;;;;;5087357;28;19977;-64
2022/04/02 09:15:06;;;;;;;;;;;25.80;28.80;;;;;;5089461;28;19925;-63
2022/04/02 09:17:36;;;;;;;;;;;25.90;28.80;;;;;;5090879;28;20420;-63
2022/04/02 09:20:17;;;;;;;;;;;25.90;28.70;;;;;;5086672;28;19954;-63
2022/04/02 09:23:04;;;;;;;;;;;25.90;28.70;;;;;;5090923;28;19985;-63
2022/04/02 09:25:51;;;;;;;;;;;25.90;28.30;;;;;;5091418;28;20353;-63
2022/04/02 09:28:38;;;;;;;;;;;25.90;28.40;;;;;;5090591;28;19977;-63
2022/04/02 09:31:21;;;;;;;;;;;25.90;28.20;;;;;;5090936;28;19931;-63
2022/04/02 09:34:08;;;;;;;;;;;25.90;28.20;;;;;;5069840;28;20340;-63
2022/04/02 09:36:59;;;;;;;;;;;25.90;28.30;;;;;;5088351;28;19936;-64
2022/04/02 09:39:45;;;;;;;;;;;25.90;28.20;;;;;;5087511;28;19924;-64
2022/04/02 09:42:27;;;;;;;;;;;25.90;28.10;;;;;;5087858;28;20376;-63
2022/04/02 09:45:14;;;;;;;;;;;25.80;28.20;;;;;;5088112;28;19993;-63
2022/04/02 09:48:01;;;;;;;;;;;25.80;28.10;;;;;;5088350;28;19932;-64
2022/04/02 09:50:28;;;;;;;;;;;25.80;28.10;;;;;;5086308;28;19935;-64
2022/04/02 09:53:15;;;;;;;;;;;25.80;28.20;;;;;;5085097;28;20011;-64
2022/04/02 09:56:03;;;;;;;;;;;25.80;28.10;;;;;;5072897;28;20033;-64
2022/04/02 09:58:49;;;;;;;;;;;25.80;28.00;;;;;;5087871;28;19928;-64
2022/04/02 10:01:24;;;;;;;;;;;25.80;28.10;;;;;;5072976;28;20001;-63
2022/04/02 10:03:57;;;;;;;;;;;25.90;28.00;;;;;;5087611;28;20027;-63
2022/04/02 10:06:41;;;;;;;;;;;25.90;28.00;;;;;;5087866;28;20185;-63
2022/04/02 10:09:10;;;;;;;;;;;25.90;28.10;;;;;;5087628;28;19954;-63
2022/04/02 10:11:43;;;;;;;;;;;25.90;28.00;;;;;;5087189;28;19969;-63
2022/04/02 10:14:11;;;;;;;;;;;25.90;28.10;;;;;;5087496;28;20484;-63
2022/04/02 10:16:40;;;;;;;;;;;25.90;27.90;;;;;;5087078;28;19986;-63
2022/04/02 10:19:08;;;;;;;;;;;25.90;27.80;;;;;;5087557;28;20369;-63
2022/04/02 10:21:36;;;;;;;;;;;25.80;27.80;;;;;;5069499;28;19977;-63
2022/04/02 10:24:23;;;;;;;;;;;25.80;27.80;;;;;;5082627;28;19925;-63
2022/04/02 10:26:51;;;;;;;;;;;25.80;27.70;;;;;;5071664;28;20198;-63
2022/04/02 10:29:38;;;;;;;;;;;25.80;27.60;;;;;;5087627;28;20174;-64
2022/04/02 10:32:23;;;;;;;;;;;25.80;27.60;;;;;;5087535;28;19989;-63
2022/04/02 10:35:03;;;;;;;;;;;25.80;27.70;;;;;;5086584;28;19975;-63
2022/04/02 10:37:42;;;;;;;;;;;25.80;27.70;;;;;;5087786;28;20374;-63
2022/04/02 10:40:13;;;;;;;;;;;25.80;28.10;;;;;;5086713;28;20380;-63
2022/04/02 10:42:50;;;;;;;;;;;25.80;27.60;;;;;;5087290;28;19924;-63
2022/04/02 10:45:18;;;;;;;;;;;25.90;27.70;;;;;;5087183;28;19928;-63
2022/04/02 10:47:46;;;;;;;;;;;25.90;27.60;;;;;;5086928;28;19960;-63
2022/04/02 10:50:16;;;;;;;;;;;25.80;27.50;;;;;;5069281;28;20304;-63
2022/04/02 10:52:49;;;;;;;;;;;25.90;27.60;;;;;;5086795;28;19955;-63
2022/04/02 10:55:17;;;;;;;;;;;25.90;27.80;;;;;;5064692;28;19928;-63
2022/04/02 10:57:44;;;;;;;;;;;25.80;27.50;;;;;;5068244;28;20019;-63
2022/04/02 11:00:12;;;;;;;;;;;25.80;27.40;;;;;;5086957;28;19924;-63
2022/04/02 11:02:43;;;;;;;;;;;25.90;27.50;;;;;;5086265;28;19924;-63
2022/04/02 11:05:13;;;;;;;;;;;25.80;27.50;;;;;;5086573;28;19936;-63
2022/04/02 11:07:42;;;;;;;;;;;25.80;27.60;;;;;;5086624;28;19977;-63
2022/04/02 11:10:12;;;;;;;;;;;25.80;27.60;;;;;;5086239;28;19954;-63
2022/04/02 11:12:44;;;;;;;;;;;25.80;27.50;;;;;;5086622;28;20163;-63
2022/04/02 11:15:24;;;;;;;;;;;25.80;27.50;;;;;;5086366;28;19958;-63
2022/04/02 11:17:53;;;;;;;;;;;25.70;27.40;;;;;;5085845;28;20422;-63
2022/04/02 11:20:22;;;;;;;;;;;25.70;27.30;;;;;;5087181;28;20005;-63
2022/04/02 11:23:08;;;;;;;;;;;25.70;27.40;;;;;;5085543;28;19953;-63
2022/04/02 11:25:36;;;;;;;;;;;25.70;27.50;;;;;;5068643;28;20170;-63
2022/04/02 11:28:14;;;;;;;;;;;25.70;27.60;;;;;;5084715;28;19924;-63
2022/04/02 11:30:52;;;;;;;;;;;25.60;27.70;;;;;;5086846;28;19928;-63
2022/04/02 11:33:20;;;;;;;;;;;25.60;27.70;;;;;;5086327;28;19997;-63
2022/04/02 11:35:55;;;;;;;;;;;25.60;27.70;;;;;;5086082;28;20331;-63
2022/04/02 11:38:25;;;;;;;;;;;25.50;27.60;;;;;;5085236;28;19932;-63
2022/04/02 11:41:01;;;;;;;;;;;25.50;27.70;;;;;;5085068;28;20191;-63
2022/04/02 11:43:32;;;;;;;;;;;25.50;27.60;;;;;;5086133;28;19924;-63
2022/04/02 11:46:00;;;;;;;;;;;25.50;27.60;;;;;;5085971;28;19982;-63
2022/04/02 11:48:32;;;;;;;;;;;25.50;27.70;;;;;;5068372;28;20197;-63
2022/04/02 11:51:13;;;;;;;;;;;25.50;27.60;;;;;;5086056;28;19924;-63
2022/04/02 11:53:40;;;;;;;;;;;25.40;27.60;;;;;;5085422;28;19924;-63
2022/04/02 11:56:26;;;;;;;;;;;25.40;27.60;;;;;;5085937;28;19969;-63
2022/04/02 11:58:56;;;;;;;;;;;25.40;27.70;;;;;;5081083;28;20449;-63
2022/04/02 12:01:23;;;;;;;;;;;25.40;27.70;;;;;;5086269;28;20439;-63
2022/04/02 12:04:04;;;;;;;;;;;25.40;27.70;;;;;;5084927;28;20000;-63
2022/04/02 12:06:35;;;;;;;;;;;25.30;27.70;;;;;;5085732;28;20174;-63
2022/04/02 12:09:13;;;;;;;;;;;25.30;27.80;;;;;;5085960;28;19928;-63
2022/04/02 12:12:00;;;;;;;;;;;25.20;27.70;;;;;;5085059;28;20424;-63
2022/04/02 12:14:31;;;;;;;;;;;25.20;27.70;;;;;;5085227;28;20384;-63
2022/04/02 12:16:59;;;;;;;;;;;25.10;27.80;;;;;;5085076;28;20421;-63
2022/04/02 12:19:44;;;;;;;;;;;25.10;27.80;;;;;;5085706;28;20543;-63
2022/04/02 12:22:19;;;;;;;;;;;25.10;27.80;;;;;;5085000;28;20333;-63
2022/04/02 12:24:48;;;;;;;;;;;25.10;27.90;;;;;;5067380;28;20203;-63
2022/04/02 12:27:16;;;;;;;;;;;25.10;27.90;;;;;;5085484;28;19923;-63
2022/04/02 12:29:47;;;;;;;;;;;25.00;27.90;;;;;;5080134;28;20183;-63
2022/04/02 12:32:34;;;;;;;;;;;25.00;28.00;;;;;;5086165;28;19978;-63
2022/04/02 12:35:12;;;;;;;;;;;25.00;28.00;;;;;;5085262;28;20296;-63
2022/04/02 12:37:49;;;;;;;;;;;24.90;28.00;;;;;;5085526;28;19924;-63
2022/04/02 12:40:17;;;;;;;;;;;24.90;28.00;;;;;;5084897;28;19928;-63
2022/04/02 12:42:45;;;;;;;;;;;24.90;28.10;;;;;;5085362;28;20289;-63
2022/04/02 12:45:15;;;;;;;;;;;24.90;28.10;;;;;;5085108;28;19925;-63
2022/04/02 12:47:55;;;;;;;;;;;24.90;28.10;;;;;;5084940;28;19924;-63
2022/04/02 12:50:21;;;;;;;;;;;24.90;28.10;;;;;;5071736;28;20364;-63
2022/04/02 12:52:50;;;;;;;;;;;24.90;28.20;;;;;;5089138;28;19931;-63
2022/04/02 12:55:21;;;;;;;;;;;24.80;28.20;;;;;;5089375;28;19928;-63
2022/04/02 12:58:07;;;;;;;;;;;24.80;28.20;;;;;;5088861;28;19924;-64
2022/04/02 13:00:36;;;;;;;;;;;24.70;28.20;;;;;;5085870;28;19924;-63
2022/04/02 13:03:04;;;;;;;;;;;24.70;28.30;;;;;;5088282;28;19932;-63
2022/04/02 13:05:47;;;;;;;;;;;24.70;28.40;;;;;;5070279;28;19931;-63
2022/04/02 13:08:24;;;;;;;;;;;24.70;28.40;;;;;;5089386;28;19924;-63
2022/04/02 13:10:55;;;;;;;;;;;24.70;28.40;;;;;;5088534;28;19975;-63
2022/04/02 13:13:40;;;;;;;;;;;24.60;28.40;;;;;;5088925;28;19924;-63
2022/04/02 13:16:09;;;;;;;;;;;24.60;28.50;;;;;;5088518;28;20453;-63
2022/04/02 13:21:32;;;;;;;;;;;24.60;28.60;;;;;;5088620;28;19924;-63
2022/04/02 13:24:19;;;;;;;;;;;24.60;28.60;;;;;;5070403;28;19975;-63
2022/04/02 13:26:55;;;;;;;;;;;24.50;28.60;;;;;;5088582;28;19924;-63
2022/04/02 13:29:38;;;;;;;;;;;24.50;28.60;;;;;;5087984;28;19978;-63
2022/04/02 13:32:24;;;;;;;;;;;24.50;28.70;;;;;;5084415;28;20122;-63
2022/04/02 13:35:04;;;;;;;;;;;24.50;28.70;;;;;;5088290;28;19928;-63
2022/04/02 13:37:51;;;;;;;;;;;24.40;28.70;;;;;;5088519;28;19978;-63
2022/04/02 13:40:19;;;;;;;;;;;24.40;28.80;;;;;;5088153;28;19924;-63
2022/04/02 13:42:49;;;;;;;;;;;24.30;28.70;;;;;;5070045;28;19924;-63
2022/04/02 13:45:19;;;;;;;;;;;24.30;28.70;;;;;;5070841;28;19990;-63
2022/04/02 13:47:54;;;;;;;;;;;24.30;28.80;;;;;;5088203;28;19954;-63
2022/04/02 13:50:23;;;;;;;;;;;24.30;28.80;;;;;;5088650;28;19928;-63
2022/04/02 13:53:04;;;;;;;;;;;24.30;28.80;;;;;;5087722;28;20372;-65
2022/04/02 13:55:34;;;;;;;;;;;24.30;28.90;;;;;;5087861;28;19928;-63
2022/04/02 13:58:03;;;;;;;;;;;24.30;28.90;;;;;;5088567;28;19950;-63
2022/04/02 14:00:38;;;;;;;;;;;24.30;28.90;;;;;;5087509;28;19993;-63
2022/04/02 14:03:06;;;;;;;;;;;24.20;28.90;;;;;;5088020;28;19924;-63
2022/04/02 14:05:40;;;;;;;;;;;24.20;28.90;;;;;;5067116;28;19930;-63
2022/04/02 14:08:09;;;;;;;;;;;24.20;29.30;;;;;;5088742;28;19924;-63
2022/04/02 14:10:43;;;;;;;;;;;24.20;28.90;;;;;;5087433;28;19978;-63
2022/04/02 14:13:11;;;;;;;;;;;24.20;28.90;;;;;;5088092;28;20023;-63
2022/04/02 14:15:41;;;;;;;;;;;24.20;28.90;;;;;;5087229;28;19924;-63
2022/04/02 14:18:09;;;;;;;;;;;24.20;28.90;;;;;;5087143;28;20419;-63
2022/04/02 14:20:36;;;;;;;;;;;24.20;29.00;;;;;;5087894;28;19958;-63
2022/04/02 14:23:10;;;;;;;;;;;24.10;28.90;;;;;;5069828;28;19924;-63
2022/04/02 14:25:57;;;;;;;;;;;24.20;29.20;;;;;;5087305;28;19931;-63
2022/04/02 14:28:44;;;;;;;;;;;24.20;29.00;;;;;;5072466;28;19959;-63
2022/04/02 14:31:27;;;;;;;;;;;24.10;29.00;;;;;;5087203;28;20388;-63
2022/04/02 14:34:07;;;;;;;;;;;24.10;29.00;;;;;;5087488;28;20454;-63
2022/04/02 14:36:47;;;;;;;;;;;24.10;29.00;;;;;;5082615;28;19924;-63
2022/04/02 14:39:33;;;;;;;;;;;24.10;29.00;;;;;;5087389;28;19958;-63
2022/04/02 14:42:03;;;;;;;;;;;24.20;29.10;;;;;;5087145;28;19956;-63
2022/04/02 14:44:50;;;;;;;;;;;24.20;29.10;;;;;;5086792;28;19985;-63
2022/04/02 14:47:37;;;;;;;;;;;24.20;29.00;;;;;;5086984;28;19985;-63